createdAt,value
2022-08-08T00:01:08.115Z,12.38
2022-08-08T00:04:25.508Z,6.85
2022-08-08T00:07:30.320Z,8.00
2022-08-08T00:10:28.320Z,8.30
2022-08-08T00:14:14.971Z,11.38
2022-08-08T00:16:20.477Z,8.07
2022-08-08T00:19:27.531Z,6.95
2022-08-08T00:22:04.729Z,7.60
2022-08-08T00:24:44.375Z,9.85
2022-08-08T00:27:13.509Z,6.60
2022-08-08T00:30:00.077Z,7.20
2022-08-08T00:32:47.306Z,10.18
2022-08-08T00:35:39.831Z,6.97
2022-08-08T00:38:30.944Z,13.30
2022-08-08T00:41:54.920Z,7.30
2022-08-08T00:45:00.051Z,6.18
2022-08-08T00:48:30.245Z,7.35
2022-08-08T00:51:38.847Z,8.83
2022-08-08T00:54:57.075Z,6.70
2022-08-08T00:57:57.905Z,10.40
2022-08-08T01:00:35.923Z,7.63
2022-08-08T01:04:01.626Z,7.97
2022-08-08T01:06:49.946Z,8.25
2022-08-08T01:12:46.124Z,8.82
2022-08-08T01:15:47.300Z,8.15
2022-08-08T01:18:53.046Z,8.75
2022-08-08T01:22:09.780Z,8.77
2022-08-08T01:25:02.348Z,5.25
2022-08-08T01:28:09.256Z,11.52
2022-08-08T01:32:13.762Z,8.75
2022-08-08T01:34:29.948Z,7.68
2022-08-08T01:37:57.413Z,7.70
2022-08-08T01:40:35.708Z,6.28
2022-08-08T01:43:43.466Z,7.30
2022-08-08T01:46:43.534Z,8.60
2022-08-08T01:49:23.306Z,7.63
2022-08-08T01:52:44.307Z,6.47
2022-08-08T01:56:29.442Z,7.78
2022-08-08T02:00:02.296Z,7.78
2022-08-08T02:02:42.742Z,10.30
2022-08-08T02:05:23.336Z,7.68
2022-08-08T02:08:10.769Z,10.82
2022-08-08T02:11:02.108Z,12.93
2022-08-08T02:13:55.663Z,10.90
2022-08-08T02:16:30.160Z,6.95
2022-08-08T02:19:41.922Z,9.10
2022-08-08T02:22:31.963Z,7.63
2022-08-08T02:25:20.350Z,10.18
2022-08-08T02:28:06.214Z,11.18
2022-08-08T02:31:04.572Z,7.72
2022-08-08T02:34:09.094Z,10.85
2022-08-08T02:36:59.262Z,9.23
2022-08-08T02:39:42.082Z,11.95
2022-08-08T02:42:38.163Z,12.20
2022-08-08T02:45:51.839Z,11.57
2022-08-08T02:48:45.516Z,17.95
2022-08-08T02:51:55.098Z,11.45
2022-08-08T02:54:59.234Z,11.85
2022-08-08T02:58:09.249Z,9.02
2022-08-08T03:01:02.608Z,9.95
2022-08-08T03:05:02.373Z,9.07
2022-08-08T03:07:41.598Z,12.20
2022-08-08T03:11:05.760Z,9.15
2022-08-08T03:16:00.784Z,11.20
2022-08-08T03:17:02.219Z,11.63
2022-08-08T03:20:03.685Z,15.73
2022-08-08T03:22:38.034Z,11.98
2022-08-08T03:25:18.004Z,12.25
2022-08-08T03:28:05.470Z,8.82
2022-08-08T03:30:32.372Z,10.50
2022-08-08T03:33:55.986Z,12.20
2022-08-08T03:36:10.254Z,6.45
2022-08-08T03:38:58.135Z,8.77
2022-08-08T03:42:12.627Z,8.13
2022-08-08T03:44:25.576Z,7.07
2022-08-08T03:46:54.023Z,6.80
2022-08-08T03:49:57.739Z,7.63
2022-08-08T03:52:14.131Z,8.63
2022-08-08T03:55:02.667Z,8.93
2022-08-08T03:58:32.185Z,7.10
2022-08-08T04:00:26.159Z,10.40
2022-08-08T04:03:06.330Z,8.98
2022-08-08T04:05:39.978Z,6.55
2022-08-08T04:08:32.549Z,10.40
2022-08-08T04:11:11.397Z,9.93
2022-08-08T04:14:03.474Z,11.07
2022-08-08T04:16:38.894Z,14.18
2022-08-08T04:19:23.935Z,10.95
2022-08-08T04:21:54.089Z,13.43
2022-08-08T04:24:30.548Z,11.30
2022-08-08T04:26:59.730Z,9.52
2022-08-08T04:29:33.240Z,11.35
2022-08-08T04:32:06.875Z,10.85
2022-08-08T04:34:49.348Z,9.60
2022-08-08T04:37:31.915Z,10.68
2022-08-08T04:40:05.664Z,18.48
2022-08-08T04:45:08.055Z,7.80
2022-08-08T04:47:43.389Z,7.97
2022-08-08T04:50:23.632Z,8.57
2022-08-08T04:52:58.910Z,11.43
2022-08-08T04:55:37.573Z,10.40
2022-08-08T04:58:17.636Z,12.65
2022-08-08T05:00:45.068Z,11.07
2022-08-08T05:03:18.715Z,10.40
2022-08-08T05:06:13.421Z,9.65
2022-08-08T05:08:51.858Z,13.45
2022-08-08T05:11:23.918Z,9.90
2022-08-08T05:13:57.925Z,9.73
2022-08-08T05:16:51.795Z,14.32
2022-08-08T05:20:11.295Z,9.63
2022-08-08T05:22:06.393Z,10.50
2022-08-08T05:24:34.028Z,13.00
2022-08-08T05:27:00.932Z,13.30
2022-08-08T05:29:29.249Z,9.73
2022-08-08T05:32:04.165Z,9.10
2022-08-08T05:34:49.194Z,16.67
2022-08-08T05:37:39.124Z,10.70
2022-08-08T05:40:11.709Z,11.88
2022-08-08T05:42:44.980Z,12.88
2022-08-08T05:45:25.464Z,16.65
2022-08-08T05:48:00.431Z,15.45
2022-08-08T05:50:33.615Z,13.50
2022-08-08T05:53:54.861Z,14.63
2022-08-08T05:56:08.340Z,19.15
2022-08-08T05:58:53.873Z,21.25
2022-08-08T06:01:52.586Z,16.67
2022-08-08T06:04:22.967Z,86.82
2022-08-08T06:07:00.251Z,23.08
2022-08-08T06:09:58.935Z,27.27
2022-08-08T06:12:29.807Z,25.25
2022-08-08T06:15:03.141Z,23.15
2022-08-08T06:18:18.380Z,24.70
2022-08-08T06:20:29.344Z,29.05
2022-08-08T06:22:57.989Z,20.88
2022-08-08T06:26:34.952Z,19.45
2022-08-08T06:28:29.208Z,41.53
2022-08-08T06:31:01.201Z,45.47
2022-08-08T06:34:26.727Z,26.77
2022-08-08T06:36:53.682Z,22.48
2022-08-08T06:39:21.868Z,20.75
2022-08-08T06:41:59.915Z,20.13
2022-08-08T06:44:30.422Z,51.33
2022-08-08T06:46:59.001Z,56.78
2022-08-08T06:49:56.563Z,28.02
2022-08-08T06:52:16.225Z,33.25
2022-08-08T06:54:44.521Z,37.40
2022-08-08T06:57:16.083Z,21.52
2022-08-08T07:00:10.795Z,36.80
2022-08-08T07:02:33.630Z,31.75
2022-08-08T07:05:21.047Z,89.43
2022-08-08T07:08:27.271Z,41.58
2022-08-08T07:10:59.722Z,25.60
2022-08-08T07:14:01.154Z,30.05
2022-08-08T07:16:54.163Z,25.83
2022-08-08T07:20:11.406Z,25.13
2022-08-08T07:22:53.636Z,25.23
2022-08-08T07:25:29.365Z,25.95
2022-08-08T07:28:18.615Z,21.20
2022-08-08T07:30:47.509Z,28.20
2022-08-08T07:33:17.646Z,23.98
2022-08-08T07:35:48.602Z,21.17
2022-08-08T07:38:20.822Z,24.38
2022-08-08T07:41:04.568Z,26.90
2022-08-08T07:43:37.682Z,23.55
2022-08-08T07:46:24.089Z,31.27
2022-08-08T07:48:52.753Z,21.48
2022-08-08T07:51:23.924Z,19.10
2022-08-08T07:54:33.786Z,21.00
2022-08-08T07:57:36.127Z,22.90
2022-08-08T08:00:16.183Z,26.17
2022-08-08T08:02:56.080Z,18.50
2022-08-08T08:05:33.512Z,21.67
2022-08-08T08:08:09.367Z,19.52
2022-08-08T08:10:39.477Z,20.27
2022-08-08T08:13:25.945Z,21.27
2022-08-08T08:16:17.176Z,19.80
2022-08-08T08:18:52.167Z,15.90
2022-08-08T08:21:44.532Z,16.73
2022-08-08T08:24:14.477Z,18.70
2022-08-08T08:26:52.441Z,25.17
2022-08-08T08:29:20.351Z,18.50
2022-08-08T08:31:57.701Z,15.52
2022-08-08T08:34:32.106Z,19.48
2022-08-08T08:40:00.416Z,14.88
2022-08-08T08:42:31.964Z,17.50
2022-08-08T08:45:21.849Z,12.88
2022-08-08T08:47:58.636Z,14.85
2022-08-08T08:50:32.390Z,18.40
2022-08-08T08:53:27.251Z,15.27
2022-08-08T08:56:02.973Z,12.55
2022-08-08T08:58:49.855Z,11.60
2022-08-08T09:01:20.693Z,12.63
2022-08-08T09:03:50.666Z,13.50
2022-08-08T09:06:33.944Z,9.82
2022-08-08T09:09:35.504Z,10.10
2022-08-08T09:12:12.912Z,11.48
2022-08-08T09:14:44.856Z,9.27
2022-08-08T09:17:18.889Z,8.90
2022-08-08T09:22:01.170Z,8.55
2022-08-08T09:22:36.226Z,8.35
2022-08-08T09:25:07.601Z,8.23
2022-08-08T09:27:57.575Z,6.75
2022-08-08T09:30:28.036Z,6.75
2022-08-08T09:33:12.510Z,7.50
2022-08-08T09:35:50.218Z,6.38
2022-08-08T09:38:59.916Z,5.43
2022-08-08T09:42:15.167Z,6.25
2022-08-08T09:44:43.580Z,8.48
2022-08-08T09:47:25.405Z,4.32
2022-08-08T09:50:03.438Z,6.78
2022-08-08T09:52:54.202Z,10.40
2022-08-08T09:55:51.624Z,8.10
2022-08-08T09:58:26.102Z,8.30
2022-08-08T10:01:02.426Z,5.55
2022-08-08T10:03:42.913Z,6.97
2022-08-08T10:06:15.967Z,5.75
2022-08-08T10:08:48.964Z,6.40
2022-08-08T10:12:28.418Z,6.78
2022-08-08T10:14:27.702Z,6.53
2022-08-08T10:16:56.074Z,6.10
2022-08-08T10:19:46.100Z,6.72
2022-08-08T10:22:28.657Z,4.57
2022-08-08T10:25:05.423Z,6.65
2022-08-08T10:27:42.850Z,5.68
2022-08-08T10:30:16.575Z,5.45
2022-08-08T10:33:00.803Z,6.47
2022-08-08T10:36:09.586Z,5.38
2022-08-08T10:38:21.471Z,7.68
2022-08-08T10:40:58.673Z,5.43
2022-08-08T10:43:37.963Z,5.47
2022-08-08T10:46:30.352Z,5.20
2022-08-08T10:48:59.620Z,4.15
2022-08-08T10:51:47.086Z,3.72
2022-08-08T10:54:27.013Z,5.55
2022-08-08T10:57:05.564Z,5.43
2022-08-08T10:59:39.642Z,3.92
2022-08-08T11:02:09.406Z,4.15
2022-08-08T11:04:52.977Z,4.45
2022-08-08T11:08:30.131Z,4.18
2022-08-08T11:10:28.676Z,6.00
2022-08-08T11:13:27.925Z,6.70
2022-08-08T11:15:53.211Z,4.43
2022-08-08T11:18:30.581Z,5.82
2022-08-08T11:21:08.943Z,9.18
2022-08-08T11:23:42.373Z,4.57
2022-08-08T11:26:19.211Z,4.25
2022-08-08T11:28:50.298Z,3.28
2022-08-08T11:31:17.368Z,3.25
2022-08-08T11:33:52.585Z,4.50
2022-08-08T11:36:27.823Z,3.25
2022-08-08T11:38:57.261Z,4.28
2022-08-08T11:41:32.133Z,5.20
2022-08-08T11:44:01.879Z,1.98
2022-08-08T11:46:32.856Z,5.40
2022-08-08T11:49:04.991Z,3.45
2022-08-08T11:51:40.099Z,5.15
2022-08-08T11:54:31.250Z,4.53
2022-08-08T11:57:14.462Z,3.83
2022-08-08T12:00:05.355Z,4.40
2022-08-08T12:02:46.735Z,2.33
2022-08-08T12:05:14.117Z,2.88
2022-08-08T12:07:49.678Z,3.15
2022-08-08T12:10:25.636Z,3.95
2022-08-08T12:13:10.223Z,4.57
2022-08-08T12:15:49.244Z,2.37
2022-08-08T12:18:24.681Z,2.67
2022-08-08T12:20:55.362Z,5.50
2022-08-08T12:23:43.880Z,4.43
2022-08-08T12:26:28.473Z,3.90
2022-08-08T12:29:36.515Z,3.78
2022-08-08T12:32:19.615Z,3.67
2022-08-08T12:35:01.338Z,4.53
2022-08-08T12:37:43.084Z,3.63
2022-08-08T12:40:22.686Z,5.20
2022-08-08T12:42:52.355Z,4.80
2022-08-08T12:45:58.482Z,5.13
2022-08-08T12:48:36.684Z,3.42
2022-08-08T12:51:07.640Z,3.50
2022-08-08T12:53:42.219Z,4.63
2022-08-08T12:56:19.531Z,4.38
2022-08-08T12:58:54.006Z,3.85
2022-08-08T13:01:24.634Z,3.58
2022-08-08T13:04:28.453Z,2.58
2022-08-08T13:07:16.483Z,3.90
2022-08-08T13:10:04.687Z,3.33
2022-08-08T13:12:47.142Z,3.30
2022-08-08T13:15:19.326Z,4.05
2022-08-08T13:18:08.298Z,3.30
2022-08-08T13:20:45.995Z,5.55
2022-08-08T13:23:41.909Z,5.43
2022-08-08T13:26:14.622Z,3.95
2022-08-08T13:28:45.369Z,2.80
2022-08-08T13:31:16.603Z,3.63
2022-08-08T13:33:49.722Z,4.00
2022-08-08T13:36:26.123Z,5.53
2022-08-08T13:39:00.043Z,4.15
2022-08-08T13:41:28.387Z,3.80
2022-08-08T13:44:08.592Z,4.20
2022-08-08T13:46:38.986Z,3.42
2022-08-08T13:50:36.386Z,4.13
2022-08-08T13:52:08.080Z,4.15
2022-08-08T13:54:44.287Z,3.50
2022-08-08T13:57:17.145Z,3.95
2022-08-08T13:59:48.481Z,3.67
2022-08-08T14:02:32.691Z,6.43
2022-08-08T14:05:19.861Z,6.18
2022-08-08T14:07:53.069Z,5.38
2022-08-08T14:10:33.557Z,5.50
2022-08-08T14:13:21.021Z,5.38
2022-08-08T14:16:04.786Z,4.30
2022-08-08T14:19:03.139Z,8.15
2022-08-08T14:21:52.172Z,5.28
2022-08-08T14:24:32.356Z,2.88
2022-08-08T14:26:59.280Z,3.58
2022-08-08T14:29:30.385Z,3.85
2022-08-08T14:32:11.487Z,4.57
2022-08-08T14:34:43.192Z,5.00
2022-08-08T14:37:13.283Z,6.70
2022-08-08T14:39:53.867Z,6.35
2022-08-08T14:42:33.731Z,3.85
2022-08-08T14:45:09.911Z,3.58
2022-08-08T14:47:53.569Z,2.13
2022-08-08T14:50:38.424Z,4.82
2022-08-08T14:53:14.102Z,6.72
2022-08-08T14:58:16.926Z,3.97
2022-08-08T15:00:48.742Z,5.60
2022-08-08T15:03:17.331Z,6.07
2022-08-08T15:05:53.272Z,4.53
2022-08-08T15:08:35.055Z,5.55
2022-08-08T15:11:09.031Z,6.50
2022-08-08T15:13:40.998Z,3.95
2022-08-08T15:16:24.484Z,4.95
2022-08-08T15:18:51.943Z,6.03
2022-08-08T15:21:20.662Z,4.22
2022-08-08T15:23:51.267Z,2.50
2022-08-08T15:26:21.215Z,4.57
2022-08-08T15:28:54.175Z,6.95
2022-08-08T15:31:53.991Z,4.00
2022-08-08T15:34:28.943Z,4.25
2022-08-08T15:36:59.704Z,4.13
2022-08-08T15:39:37.909Z,5.15
2022-08-08T15:42:10.837Z,4.53
2022-08-08T15:44:42.410Z,4.28
2022-08-08T15:47:15.893Z,5.85
2022-08-08T15:49:47.597Z,3.67
2022-08-08T15:52:18.084Z,5.43
2022-08-08T15:54:51.839Z,3.90
2022-08-08T15:57:20.819Z,4.13
2022-08-08T16:00:26.253Z,4.13
2022-08-08T16:02:36.053Z,3.40
2022-08-08T16:05:13.673Z,3.42
2022-08-08T16:07:52.403Z,5.25
2022-08-08T16:13:10.006Z,6.45
2022-08-08T16:13:30.932Z,7.57
2022-08-08T16:16:09.458Z,3.10
2022-08-08T16:18:57.279Z,6.68
2022-08-08T16:21:29.415Z,6.35
2022-08-08T16:23:58.005Z,5.40
2022-08-08T16:26:34.661Z,4.03
2022-08-08T16:29:16.161Z,4.70
2022-08-08T16:31:48.481Z,3.33
2022-08-08T16:34:20.754Z,5.70
2022-08-08T16:36:51.864Z,7.07
2022-08-08T16:39:49.159Z,3.97
2022-08-08T16:42:17.950Z,4.72
2022-08-08T16:44:47.488Z,4.15
2022-08-08T16:47:40.590Z,4.38
2022-08-08T16:50:14.549Z,4.55
2022-08-08T16:55:06.676Z,5.93
2022-08-08T16:55:53.940Z,4.50
2022-08-08T16:58:29.256Z,6.47
2022-08-08T17:01:00.167Z,6.63
2022-08-08T17:04:00.002Z,5.75
2022-08-08T17:06:36.940Z,5.20
2022-08-08T17:09:02.547Z,4.25
2022-08-08T17:11:48.617Z,3.75
2022-08-08T17:14:19.928Z,4.20
2022-08-08T17:16:57.322Z,5.38
2022-08-08T17:19:29.988Z,3.35
2022-08-08T17:22:01.254Z,4.35
2022-08-08T17:24:30.718Z,4.70
2022-08-08T17:27:02.422Z,3.78
2022-08-08T17:29:34.050Z,5.20
2022-08-08T17:32:05.997Z,4.95
2022-08-08T17:35:44.396Z,5.53
2022-08-08T17:37:24.940Z,11.52
2022-08-08T17:40:11.146Z,4.15
2022-08-08T17:42:38.921Z,5.35
2022-08-08T17:45:07.534Z,4.25
2022-08-08T17:47:51.087Z,3.92
2022-08-08T17:50:18.450Z,3.67
2022-08-08T17:52:47.622Z,3.88
2022-08-08T17:56:05.191Z,4.38
2022-08-08T17:58:02.172Z,4.05
2022-08-08T18:00:30.784Z,4.32
2022-08-08T18:03:08.552Z,4.95
2022-08-08T18:05:48.443Z,4.50
2022-08-08T18:08:37.598Z,3.25
2022-08-08T18:11:16.827Z,4.65
2022-08-08T18:13:47.220Z,3.13
2022-08-08T18:16:16.980Z,4.90
2022-08-08T18:18:53.805Z,4.68
2022-08-08T18:21:59.590Z,10.45
2022-08-08T18:24:21.615Z,9.25
2022-08-08T18:26:53.873Z,4.72
2022-08-08T18:29:36.495Z,5.03
2022-08-08T18:32:09.257Z,3.42
2022-08-08T18:34:37.985Z,6.28
2022-08-08T18:37:08.042Z,5.15
2022-08-08T18:39:36.941Z,3.97
2022-08-08T18:42:10.248Z,5.20
2022-08-08T18:44:42.185Z,3.92
2022-08-08T18:47:09.047Z,6.13
2022-08-08T18:49:41.064Z,7.35
2022-08-08T18:52:23.853Z,6.53
2022-08-08T18:55:00.639Z,7.63
2022-08-08T18:57:44.725Z,6.57
2022-08-08T19:00:19.793Z,3.95
2022-08-08T19:02:55.459Z,5.45
2022-08-08T19:05:34.060Z,3.90
2022-08-08T19:08:25.366Z,3.95
2022-08-08T19:10:58.643Z,9.02
2022-08-08T19:13:52.379Z,35.60
2022-08-08T19:16:18.397Z,9.30
2022-08-08T19:18:54.453Z,9.93
2022-08-08T19:21:30.655Z,5.40
2022-08-08T19:23:59.839Z,12.63
2022-08-08T19:26:30.341Z,9.00
2022-08-08T19:29:01.838Z,7.25
2022-08-08T19:31:31.698Z,6.25
2022-08-08T19:34:35.763Z,6.55
2022-08-08T19:36:59.221Z,10.55
2022-08-08T19:39:30.918Z,11.40
2022-08-08T19:42:07.099Z,14.85
2022-08-08T19:44:42.735Z,22.23
2022-08-08T19:47:12.366Z,16.05
2022-08-08T19:49:39.761Z,9.10
2022-08-08T19:52:13.521Z,7.65
2022-08-08T19:54:43.112Z,5.88
2022-08-08T19:57:10.443Z,6.57
2022-08-08T19:59:42.172Z,3.05
2022-08-08T20:02:10.535Z,4.03
2022-08-08T20:04:38.189Z,7.97
2022-08-08T20:08:30.948Z,7.35
2022-08-08T20:09:57.087Z,5.90
2022-08-08T20:12:32.517Z,8.15
2022-08-08T20:15:14.333Z,6.60
2022-08-08T20:17:46.683Z,9.43
2022-08-08T20:20:19.190Z,7.47
2022-08-08T20:22:53.785Z,9.32
2022-08-08T20:25:24.591Z,9.30
2022-08-08T20:27:54.434Z,8.55
2022-08-08T20:30:53.712Z,9.60
2022-08-08T20:33:20.046Z,14.50
2022-08-08T20:35:57.016Z,12.30
2022-08-08T20:40:59.449Z,9.45
2022-08-08T20:43:44.007Z,5.05
2022-08-08T20:46:13.757Z,12.85
2022-08-08T20:48:40.935Z,10.50
2022-08-08T20:51:08.183Z,14.45
2022-08-08T20:53:59.789Z,8.35
2022-08-08T20:56:35.015Z,11.55
2022-08-08T20:59:08.970Z,9.13
2022-08-08T21:02:05.737Z,11.68
2022-08-08T21:04:27.597Z,8.30
2022-08-08T21:06:56.040Z,7.85
2022-08-08T21:09:23.482Z,7.47
2022-08-08T21:12:03.041Z,7.55
2022-08-08T21:14:34.415Z,7.82
2022-08-08T21:17:06.737Z,6.05
2022-08-08T21:19:45.725Z,7.68
2022-08-08T21:22:15.250Z,4.25
2022-08-08T21:24:53.020Z,5.53
2022-08-08T21:28:05.243Z,8.02
2022-08-08T21:30:19.369Z,8.00
2022-08-08T21:32:51.799Z,10.27
2022-08-08T21:36:18.357Z,4.22
2022-08-08T21:38:16.300Z,7.03
2022-08-08T21:40:55.733Z,5.43
2022-08-08T21:43:33.037Z,6.70
2022-08-08T21:48:07.423Z,6.55
2022-08-08T21:48:55.157Z,6.20
2022-08-08T21:54:18.433Z,5.07
2022-08-08T21:54:33.580Z,8.20
2022-08-08T21:57:02.854Z,5.25
2022-08-08T21:59:59.407Z,4.93
2022-08-08T22:02:22.807Z,3.88
2022-08-08T22:04:56.082Z,6.32
2022-08-08T22:07:40.327Z,8.32
2022-08-08T22:10:18.135Z,5.25
2022-08-08T22:13:16.679Z,4.20
2022-08-08T22:15:59.089Z,7.18
2022-08-08T22:18:35.305Z,5.63
2022-08-08T22:21:13.734Z,5.72
2022-08-08T22:23:51.387Z,5.13
2022-08-08T22:26:30.997Z,5.65
2022-08-08T22:29:14.384Z,5.88
2022-08-08T22:31:58.561Z,5.35
2022-08-08T22:34:30.103Z,8.68
2022-08-08T22:36:56.914Z,6.00
2022-08-08T22:39:23.802Z,4.35
2022-08-08T22:42:10.550Z,6.60
2022-08-08T22:44:37.845Z,5.25
2022-08-08T22:47:15.930Z,4.40
2022-08-08T22:49:45.156Z,7.82
2022-08-08T22:52:25.851Z,4.82
2022-08-08T22:54:58.692Z,6.63
2022-08-08T22:57:43.666Z,3.65
2022-08-08T23:00:16.759Z,6.32
2022-08-08T23:02:44.785Z,6.30
2022-08-08T23:05:17.698Z,7.65
2022-08-08T23:07:50.981Z,5.53
